sensor_id;sensor_type;location;lat;lon;timestamp;temperature;humidity
15967;DHT22;15175;48.154;11.534;2022-09-09T00:00:58;18.20;99.90
15967;DHT22;15175;48.154;11.534;2022-09-09T00:03:29;18.20;99.90
15967;DHT22;15175;48.154;11.534;2022-09-09T00:06:04;18.20;99.90
15967;DHT22;15175;48.154;11.534;2022-09-09T00:08:40;18.20;99.90
15967;DHT22;15175;48.154;11.534;2022-09-09T00:11:13;18.20;99.90
15967;DHT22;15175;48.154;11.534;2022-09-09T00:13:46;18.20;99.90
15967;DHT22;15175;48.154;11.534;2022-09-09T00:16:18;18.30;99.90
15967;DHT22;15175;48.154;11.534;2022-09-09T00:18:55;18.30;99.90
15967;DHT22;15175;48.154;11.534;2022-09-09T00:21:28;18.20;99.90
15967;DHT22;15175;48.154;11.534;2022-09-09T00:23:59;18.20;99.90
15967;DHT22;15175;48.154;11.534;2022-09-09T00:26:33;18.20;99.90
15967;DHT22;15175;48.154;11.534;2022-09-09T00:29:10;18.10;99.90
15967;DHT22;15175;48.154;11.534;2022-09-09T00:31:41;18.20;99.90
15967;DHT22;15175;48.154;11.534;2022-09-09T00:34:12;18.20;99.90
15967;DHT22;15175;48.154;11.534;2022-09-09T00:36:40;18.20;99.90
15967;DHT22;15175;48.154;11.534;2022-09-09T00:39:14;18.20;99.90
15967;DHT22;15175;48.154;11.534;2022-09-09T00:42:02;18.20;99.90
15967;DHT22;15175;48.154;11.534;2022-09-09T00:44:37;18.10;99.90
15967;DHT22;15175;48.154;11.534;2022-09-09T00:47:16;18.10;99.90
15967;DHT22;15175;48.154;11.534;2022-09-09T00:49:56;18.10;99.90
15967;DHT22;15175;48.154;11.534;2022-09-09T00:52:32;18.10;99.90
15967;DHT22;15175;48.154;11.534;2022-09-09T00:55:07;18.10;99.90
15967;DHT22;15175;48.154;11.534;2022-09-09T00:57:38;18.10;99.90
15967;DHT22;15175;48.154;11.534;2022-09-09T01:00:22;18.10;99.90
15967;DHT22;15175;48.154;11.534;2022-09-09T01:03:18;18.10;99.90
15967;DHT22;15175;48.154;11.534;2022-09-09T01:05:49;18.00;99.90
15967;DHT22;15175;48.154;11.534;2022-09-09T01:08:34;18.00;99.90
15967;DHT22;15175;48.154;11.534;2022-09-09T01:11:05;18.00;99.90
15967;DHT22;15175;48.154;11.534;2022-09-09T01:13:36;17.90;99.90
15967;DHT22;15175;48.154;11.534;2022-09-09T01:16:10;17.90;99.90
15967;DHT22;15175;48.154;11.534;2022-09-09T01:18:42;17.90;99.90
15967;DHT22;15175;48.154;11.534;2022-09-09T01:21:19;17.90;99.90
15967;DHT22;15175;48.154;11.534;2022-09-09T01:24:05;17.90;99.90
15967;DHT22;15175;48.154;11.534;2022-09-09T01:27:01;17.90;99.90
15967;DHT22;15175;48.154;11.534;2022-09-09T01:29:29;17.90;99.90
15967;DHT22;15175;48.154;11.534;2022-09-09T01:31:58;17.90;99.90
15967;DHT22;15175;48.154;11.534;2022-09-09T01:34:28;17.80;99.90
15967;DHT22;15175;48.154;11.534;2022-09-09T01:36:59;17.80;99.90
15967;DHT22;15175;48.154;11.534;2022-09-09T01:39:28;17.80;99.90
15967;DHT22;15175;48.154;11.534;2022-09-09T01:42:06;17.80;99.90
15967;DHT22;15175;48.154;11.534;2022-09-09T01:44:34;17.80;99.90
15967;DHT22;15175;48.154;11.534;2022-09-09T01:47:04;17.80;99.90
15967;DHT22;15175;48.154;11.534;2022-09-09T01:49:32;17.80;99.90
15967;DHT22;15175;48.154;11.534;2022-09-09T01:52:06;17.70;99.90
15967;DHT22;15175;48.154;11.534;2022-09-09T01:54:37;17.80;99.90
15967;DHT22;15175;48.154;11.534;2022-09-09T01:57:18;17.80;99.90
15967;DHT22;15175;48.154;11.534;2022-09-09T01:59:57;17.80;99.90
15967;DHT22;15175;48.154;11.534;2022-09-09T02:02:32;17.70;99.90
15967;DHT22;15175;48.154;11.534;2022-09-09T02:05:18;17.70;99.90
15967;DHT22;15175;48.154;11.534;2022-09-09T02:07:50;17.70;99.90
15967;DHT22;15175;48.154;11.534;2022-09-09T02:10:32;17.70;99.90
15967;DHT22;15175;48.154;11.534;2022-09-09T02:13:14;17.70;99.90
15967;DHT22;15175;48.154;11.534;2022-09-09T02:15:45;17.70;99.90
15967;DHT22;15175;48.154;11.534;2022-09-09T02:18:20;17.70;99.90
15967;DHT22;15175;48.154;11.534;2022-09-09T02:20:51;17.70;99.90
15967;DHT22;15175;48.154;11.534;2022-09-09T02:23:19;17.70;99.90
15967;DHT22;15175;48.154;11.534;2022-09-09T02:25:51;17.70;99.90
15967;DHT22;15175;48.154;11.534;2022-09-09T02:28:26;17.70;99.90
15967;DHT22;15175;48.154;11.534;2022-09-09T02:30:54;17.70;99.90
15967;DHT22;15175;48.154;11.534;2022-09-09T02:33:49;17.60;99.90
15967;DHT22;15175;48.154;11.534;2022-09-09T02:36:19;17.60;99.90
15967;DHT22;15175;48.154;11.534;2022-09-09T02:38:47;17.60;99.90
15967;DHT22;15175;48.154;11.534;2022-09-09T02:41:23;17.70;99.90
15967;DHT22;15175;48.154;11.534;2022-09-09T02:43:52;17.70;99.90
15967;DHT22;15175;48.154;11.534;2022-09-09T02:46:32;17.70;99.90
15967;DHT22;15175;48.154;11.534;2022-09-09T02:49:06;17.70;99.90
15967;DHT22;15175;48.154;11.534;2022-09-09T02:51:47;17.70;99.90
15967;DHT22;15175;48.154;11.534;2022-09-09T02:54:23;17.60;99.90
15967;DHT22;15175;48.154;11.534;2022-09-09T02:56:53;17.60;99.90
15967;DHT22;15175;48.154;11.534;2022-09-09T02:59:30;17.60;99.90
15967;DHT22;15175;48.154;11.534;2022-09-09T03:01:58;17.50;99.90
15967;DHT22;15175;48.154;11.534;2022-09-09T03:04:25;17.50;99.90
15967;DHT22;15175;48.154;11.534;2022-09-09T03:06:52;17.50;99.90
15967;DHT22;15175;48.154;11.534;2022-09-09T03:09:20;17.50;99.90
15967;DHT22;15175;48.154;11.534;2022-09-09T03:11:48;17.50;99.90
15967;DHT22;15175;48.154;11.534;2022-09-09T03:14:16;17.50;99.90
15967;DHT22;15175;48.154;11.534;2022-09-09T03:16:48;17.50;99.90
15967;DHT22;15175;48.154;11.534;2022-09-09T03:19:16;17.50;99.90
15967;DHT22;15175;48.154;11.534;2022-09-09T03:21:44;17.50;99.90
15967;DHT22;15175;48.154;11.534;2022-09-09T03:24:12;17.50;99.90
15967;DHT22;15175;48.154;11.534;2022-09-09T03:26:39;17.50;99.90
15967;DHT22;15175;48.154;11.534;2022-09-09T03:29:11;17.50;99.90
15967;DHT22;15175;48.154;11.534;2022-09-09T03:31:40;17.50;99.90
15967;DHT22;15175;48.154;11.534;2022-09-09T03:34:09;17.50;99.90
15967;DHT22;15175;48.154;11.534;2022-09-09T03:36:37;17.50;99.90
15967;DHT22;15175;48.154;11.534;2022-09-09T03:39:04;17.40;99.90
15967;DHT22;15175;48.154;11.534;2022-09-09T03:41:32;17.40;99.90
15967;DHT22;15175;48.154;11.534;2022-09-09T03:44:01;17.30;99.90
15967;DHT22;15175;48.154;11.534;2022-09-09T03:46:33;17.30;99.90
15967;DHT22;15175;48.154;11.534;2022-09-09T03:49:01;17.30;99.90
15967;DHT22;15175;48.154;11.534;2022-09-09T03:51:31;17.30;99.90
15967;DHT22;15175;48.154;11.534;2022-09-09T03:54:03;17.30;99.90
15967;DHT22;15175;48.154;11.534;2022-09-09T03:56:31;17.30;99.90
15967;DHT22;15175;48.154;11.534;2022-09-09T03:58:59;17.30;99.90
15967;DHT22;15175;48.154;11.534;2022-09-09T04:01:27;17.20;99.90
15967;DHT22;15175;48.154;11.534;2022-09-09T04:03:54;17.20;99.90
15967;DHT22;15175;48.154;11.534;2022-09-09T04:06:24;17.20;99.90
15967;DHT22;15175;48.154;11.534;2022-09-09T04:08:53;17.20;99.90
15967;DHT22;15175;48.154;11.534;2022-09-09T04:11:21;17.20;99.90
15967;DHT22;15175;48.154;11.534;2022-09-09T04:13:51;17.20;99.90
15967;DHT22;15175;48.154;11.534;2022-09-09T04:16:18;17.10;99.90
15967;DHT22;15175;48.154;11.534;2022-09-09T04:18:46;17.10;99.90
15967;DHT22;15175;48.154;11.534;2022-09-09T04:21:16;17.10;99.90
15967;DHT22;15175;48.154;11.534;2022-09-09T04:23:43;17.10;99.90
15967;DHT22;15175;48.154;11.534;2022-09-09T04:26:12;17.10;99.90
15967;DHT22;15175;48.154;11.534;2022-09-09T04:28:40;17.10;99.90
15967;DHT22;15175;48.154;11.534;2022-09-09T04:31:16;17.00;99.90
15967;DHT22;15175;48.154;11.534;2022-09-09T04:33:45;17.00;99.90
15967;DHT22;15175;48.154;11.534;2022-09-09T04:36:13;17.00;99.90
15967;DHT22;15175;48.154;11.534;2022-09-09T04:38:41;17.00;99.90
15967;DHT22;15175;48.154;11.534;2022-09-09T04:41:11;17.00;99.90
15967;DHT22;15175;48.154;11.534;2022-09-09T04:43:42;17.00;99.90
15967;DHT22;15175;48.154;11.534;2022-09-09T04:46:11;17.10;99.90
15967;DHT22;15175;48.154;11.534;2022-09-09T04:48:38;17.10;99.90
15967;DHT22;15175;48.154;11.534;2022-09-09T04:51:09;17.10;99.90
15967;DHT22;15175;48.154;11.534;2022-09-09T04:53:39;17.10;99.90
15967;DHT22;15175;48.154;11.534;2022-09-09T04:56:08;17.00;99.90
15967;DHT22;15175;48.154;11.534;2022-09-09T04:58:41;17.00;99.90
15967;DHT22;15175;48.154;11.534;2022-09-09T05:01:11;17.00;99.90
15967;DHT22;15175;48.154;11.534;2022-09-09T05:03:40;17.00;99.90
15967;DHT22;15175;48.154;11.534;2022-09-09T05:06:12;17.00;99.90
15967;DHT22;15175;48.154;11.534;2022-09-09T05:08:41;17.00;99.90
15967;DHT22;15175;48.154;11.534;2022-09-09T05:11:16;17.00;99.90
15967;DHT22;15175;48.154;11.534;2022-09-09T05:13:46;17.10;99.90
15967;DHT22;15175;48.154;11.534;2022-09-09T05:16:14;17.10;99.90
15967;DHT22;15175;48.154;11.534;2022-09-09T05:18:42;17.10;99.90
15967;DHT22;15175;48.154;11.534;2022-09-09T05:21:09;17.00;99.90
15967;DHT22;15175;48.154;11.534;2022-09-09T05:23:37;17.00;99.90
15967;DHT22;15175;48.154;11.534;2022-09-09T05:26:05;17.00;99.90
15967;DHT22;15175;48.154;11.534;2022-09-09T05:28:34;17.00;99.90
15967;DHT22;15175;48.154;11.534;2022-09-09T05:31:05;17.00;99.90
15967;DHT22;15175;48.154;11.534;2022-09-09T05:33:35;17.10;99.90
15967;DHT22;15175;48.154;11.534;2022-09-09T05:36:05;17.10;99.90
15967;DHT22;15175;48.154;11.534;2022-09-09T05:38:34;17.10;99.90
15967;DHT22;15175;48.154;11.534;2022-09-09T05:41:02;17.10;99.90
15967;DHT22;15175;48.154;11.534;2022-09-09T05:43:30;17.10;99.90
15967;DHT22;15175;48.154;11.534;2022-09-09T05:46:00;17.10;99.90
15967;DHT22;15175;48.154;11.534;2022-09-09T05:48:31;17.10;99.90
15967;DHT22;15175;48.154;11.534;2022-09-09T05:50:59;17.10;99.90
15967;DHT22;15175;48.154;11.534;2022-09-09T05:53:26;17.10;99.90
15967;DHT22;15175;48.154;11.534;2022-09-09T05:56:01;17.10;99.90
15967;DHT22;15175;48.154;11.534;2022-09-09T05:58:32;17.20;99.90
15967;DHT22;15175;48.154;11.534;2022-09-09T06:01:03;17.20;99.90
15967;DHT22;15175;48.154;11.534;2022-09-09T06:03:34;17.20;99.90
15967;DHT22;15175;48.154;11.534;2022-09-09T06:06:03;17.20;99.90
15967;DHT22;15175;48.154;11.534;2022-09-09T06:08:31;17.20;99.90
15967;DHT22;15175;48.154;11.534;2022-09-09T06:11:02;17.20;99.90
15967;DHT22;15175;48.154;11.534;2022-09-09T06:13:30;17.10;99.90
15967;DHT22;15175;48.154;11.534;2022-09-09T06:15:57;17.10;99.90
15967;DHT22;15175;48.154;11.534;2022-09-09T06:18:26;17.10;99.90
15967;DHT22;15175;48.154;11.534;2022-09-09T06:20:56;17.10;99.90
15967;DHT22;15175;48.154;11.534;2022-09-09T06:23:24;17.20;99.90
15967;DHT22;15175;48.154;11.534;2022-09-09T06:25:51;17.20;99.90
15967;DHT22;15175;48.154;11.534;2022-09-09T06:28:18;17.20;99.90
15967;DHT22;15175;48.154;11.534;2022-09-09T06:30:45;17.20;99.90
15967;DHT22;15175;48.154;11.534;2022-09-09T06:33:13;17.20;99.90
15967;DHT22;15175;48.154;11.534;2022-09-09T06:35:40;17.10;99.90
15967;DHT22;15175;48.154;11.534;2022-09-09T06:38:09;17.20;99.90
15967;DHT22;15175;48.154;11.534;2022-09-09T06:40:36;17.20;99.90
15967;DHT22;15175;48.154;11.534;2022-09-09T06:43:04;17.20;99.90
15967;DHT22;15175;48.154;11.534;2022-09-09T06:45:37;17.30;99.90
15967;DHT22;15175;48.154;11.534;2022-09-09T06:48:04;17.30;99.90
15967;DHT22;15175;48.154;11.534;2022-09-09T06:50:31;17.30;99.90
15967;DHT22;15175;48.154;11.534;2022-09-09T06:52:58;17.30;99.90
15967;DHT22;15175;48.154;11.534;2022-09-09T06:55:27;17.40;99.90
15967;DHT22;15175;48.154;11.534;2022-09-09T06:57:54;17.30;99.90
15967;DHT22;15175;48.154;11.534;2022-09-09T07:00:22;17.30;99.90
15967;DHT22;15175;48.154;11.534;2022-09-09T07:02:51;17.30;99.90
15967;DHT22;15175;48.154;11.534;2022-09-09T07:05:18;17.40;99.90
15967;DHT22;15175;48.154;11.534;2022-09-09T07:07:47;17.40;99.90
15967;DHT22;15175;48.154;11.534;2022-09-09T07:10:17;17.40;99.90
15967;DHT22;15175;48.154;11.534;2022-09-09T07:12:50;17.40;99.90
15967;DHT22;15175;48.154;11.534;2022-09-09T07:15:19;17.40;99.90
15967;DHT22;15175;48.154;11.534;2022-09-09T07:17:47;17.50;99.90
15967;DHT22;15175;48.154;11.534;2022-09-09T07:20:15;17.60;99.90
15967;DHT22;15175;48.154;11.534;2022-09-09T07:22:42;17.60;99.90
15967;DHT22;15175;48.154;11.534;2022-09-09T07:25:10;17.70;99.90
15967;DHT22;15175;48.154;11.534;2022-09-09T07:27:37;17.70;99.90
15967;DHT22;15175;48.154;11.534;2022-09-09T07:30:07;17.70;99.90
15967;DHT22;15175;48.154;11.534;2022-09-09T07:32:35;17.70;99.90
15967;DHT22;15175;48.154;11.534;2022-09-09T07:35:02;17.80;99.90
15967;DHT22;15175;48.154;11.534;2022-09-09T07:37:29;17.80;99.90
15967;DHT22;15175;48.154;11.534;2022-09-09T07:39:57;17.80;99.90
15967;DHT22;15175;48.154;11.534;2022-09-09T07:42:24;17.80;99.90
15967;DHT22;15175;48.154;11.534;2022-09-09T07:44:52;17.90;99.90
15967;DHT22;15175;48.154;11.534;2022-09-09T07:47:22;17.90;99.90
15967;DHT22;15175;48.154;11.534;2022-09-09T07:49:50;18.00;99.90
15967;DHT22;15175;48.154;11.534;2022-09-09T07:52:25;18.00;99.90
15967;DHT22;15175;48.154;11.534;2022-09-09T07:54:56;18.10;99.90
15967;DHT22;15175;48.154;11.534;2022-09-09T07:57:23;18.10;99.90
15967;DHT22;15175;48.154;11.534;2022-09-09T07:59:52;18.10;99.90
15967;DHT22;15175;48.154;11.534;2022-09-09T08:02:19;18.20;99.90
15967;DHT22;15175;48.154;11.534;2022-09-09T08:04:48;18.20;99.90
15967;DHT22;15175;48.154;11.534;2022-09-09T08:07:17;18.20;99.90
15967;DHT22;15175;48.154;11.534;2022-09-09T08:09:50;18.30;99.90
15967;DHT22;15175;48.154;11.534;2022-09-09T08:12:30;18.30;99.90
15967;DHT22;15175;48.154;11.534;2022-09-09T08:14:58;18.40;99.90
15967;DHT22;15175;48.154;11.534;2022-09-09T08:17:29;18.40;99.90
15967;DHT22;15175;48.154;11.534;2022-09-09T08:19:59;18.40;99.90
15967;DHT22;15175;48.154;11.534;2022-09-09T08:22:30;18.50;99.90
15967;DHT22;15175;48.154;11.534;2022-09-09T08:24:57;18.50;99.90
15967;DHT22;15175;48.154;11.534;2022-09-09T08:27:25;18.50;99.90
15967;DHT22;15175;48.154;11.534;2022-09-09T08:29:53;18.50;99.90
15967;DHT22;15175;48.154;11.534;2022-09-09T08:32:22;18.50;99.90
15967;DHT22;15175;48.154;11.534;2022-09-09T08:34:50;18.60;99.90
15967;DHT22;15175;48.154;11.534;2022-09-09T08:37:23;18.60;99.90
15967;DHT22;15175;48.154;11.534;2022-09-09T08:39:50;18.60;99.90
15967;DHT22;15175;48.154;11.534;2022-09-09T08:42:31;18.70;99.90
15967;DHT22;15175;48.154;11.534;2022-09-09T08:45:18;18.70;99.90
15967;DHT22;15175;48.154;11.534;2022-09-09T08:50:39;18.80;99.90
15967;DHT22;15175;48.154;11.534;2022-09-09T08:53:19;18.80;99.90
15967;DHT22;15175;48.154;11.534;2022-09-09T08:55:51;18.80;99.90
15967;DHT22;15175;48.154;11.534;2022-09-09T08:58:27;18.80;99.90
15967;DHT22;15175;48.154;11.534;2022-09-09T09:01:12;18.80;99.90
15967;DHT22;15175;48.154;11.534;2022-09-09T09:03:56;18.90;99.90
15967;DHT22;15175;48.154;11.534;2022-09-09T09:06:39;18.90;99.90
15967;DHT22;15175;48.154;11.534;2022-09-09T09:09:18;18.90;99.90
15967;DHT22;15175;48.154;11.534;2022-09-09T09:11:50;18.90;99.90
15967;DHT22;15175;48.154;11.534;2022-09-09T09:14:21;18.90;99.90
15967;DHT22;15175;48.154;11.534;2022-09-09T09:16:53;18.90;99.90
15967;DHT22;15175;48.154;11.534;2022-09-09T09:19:20;18.90;99.90
15967;DHT22;15175;48.154;11.534;2022-09-09T09:21:54;18.90;99.90
15967;DHT22;15175;48.154;11.534;2022-09-09T09:24:32;19.00;99.90
15967;DHT22;15175;48.154;11.534;2022-09-09T09:27:11;19.00;99.90
15967;DHT22;15175;48.154;11.534;2022-09-09T09:29:42;19.00;99.90
15967;DHT22;15175;48.154;11.534;2022-09-09T09:32:13;19.00;99.90
15967;DHT22;15175;48.154;11.534;2022-09-09T09:34:42;19.10;99.90
15967;DHT22;15175;48.154;11.534;2022-09-09T09:37:15;19.10;99.90
15967;DHT22;15175;48.154;11.534;2022-09-09T09:39:47;19.10;99.90
15967;DHT22;15175;48.154;11.534;2022-09-09T09:42:17;19.10;99.90
15967;DHT22;15175;48.154;11.534;2022-09-09T09:44:46;19.10;99.90
15967;DHT22;15175;48.154;11.534;2022-09-09T09:47:21;19.10;99.90
15967;DHT22;15175;48.154;11.534;2022-09-09T09:50:19;19.10;99.90
15967;DHT22;15175;48.154;11.534;2022-09-09T09:52:54;19.20;99.90
15967;DHT22;15175;48.154;11.534;2022-09-09T09:55:25;19.20;99.90
15967;DHT22;15175;48.154;11.534;2022-09-09T09:57:53;19.20;99.90
15967;DHT22;15175;48.154;11.534;2022-09-09T10:00:22;19.20;99.90
15967;DHT22;15175;48.154;11.534;2022-09-09T10:03:17;19.20;99.90
15967;DHT22;15175;48.154;11.534;2022-09-09T10:05:48;19.10;99.90
15967;DHT22;15175;48.154;11.534;2022-09-09T10:08:17;19.10;99.90
15967;DHT22;15175;48.154;11.534;2022-09-09T10:11:07;19.00;99.90
15967;DHT22;15175;48.154;11.534;2022-09-09T10:13:48;19.10;99.90
15967;DHT22;15175;48.154;11.534;2022-09-09T10:16:38;19.00;99.90
15967;DHT22;15175;48.154;11.534;2022-09-09T10:19:12;19.00;99.90
15967;DHT22;15175;48.154;11.534;2022-09-09T10:21:56;19.00;99.90
15967;DHT22;15175;48.154;11.534;2022-09-09T10:24:47;19.00;99.90
15967;DHT22;15175;48.154;11.534;2022-09-09T10:27:24;19.00;99.90
15967;DHT22;15175;48.154;11.534;2022-09-09T10:30:05;18.90;99.90
15967;DHT22;15175;48.154;11.534;2022-09-09T10:32:39;18.90;99.90
15967;DHT22;15175;48.154;11.534;2022-09-09T10:35:14;18.90;99.90
15967;DHT22;15175;48.154;11.534;2022-09-09T10:38:05;18.90;99.90
15967;DHT22;15175;48.154;11.534;2022-09-09T10:40:40;18.90;99.90
15967;DHT22;15175;48.154;11.534;2022-09-09T10:43:39;18.70;99.90
15967;DHT22;15175;48.154;11.534;2022-09-09T10:46:15;18.80;99.90
15967;DHT22;15175;48.154;11.534;2022-09-09T10:49:00;18.80;99.90
15967;DHT22;15175;48.154;11.534;2022-09-09T10:51:36;18.80;99.90
15967;DHT22;15175;48.154;11.534;2022-09-09T10:54:30;18.80;99.90
15967;DHT22;15175;48.154;11.534;2022-09-09T10:57:00;18.70;99.90
15967;DHT22;15175;48.154;11.534;2022-09-09T10:59:35;18.70;99.90
15967;DHT22;15175;48.154;11.534;2022-09-09T11:02:13;18.70;99.90
15967;DHT22;15175;48.154;11.534;2022-09-09T11:04:45;18.70;99.90
15967;DHT22;15175;48.154;11.534;2022-09-09T11:07:18;18.80;99.90
15967;DHT22;15175;48.154;11.534;2022-09-09T11:09:53;18.90;99.90
15967;DHT22;15175;48.154;11.534;2022-09-09T11:12:23;19.00;99.90
15967;DHT22;15175;48.154;11.534;2022-09-09T11:14:57;19.10;99.90
15967;DHT22;15175;48.154;11.534;2022-09-09T11:17:33;19.20;99.90
15967;DHT22;15175;48.154;11.534;2022-09-09T11:20:04;19.40;99.90
15967;DHT22;15175;48.154;11.534;2022-09-09T11:22:34;19.50;99.90
15967;DHT22;15175;48.154;11.534;2022-09-09T11:25:07;19.50;99.90
15967;DHT22;15175;48.154;11.534;2022-09-09T11:27:42;19.60;99.90
15967;DHT22;15175;48.154;11.534;2022-09-09T11:30:18;19.70;99.90
15967;DHT22;15175;48.154;11.534;2022-09-09T11:35:52;19.80;99.90
15967;DHT22;15175;48.154;11.534;2022-09-09T11:38:26;19.80;99.90
15967;DHT22;15175;48.154;11.534;2022-09-09T11:40:58;19.90;99.90
15967;DHT22;15175;48.154;11.534;2022-09-09T11:43:32;20.10;99.90
15967;DHT22;15175;48.154;11.534;2022-09-09T11:46:02;20.30;99.90
15967;DHT22;15175;48.154;11.534;2022-09-09T11:48:33;20.30;99.90
15967;DHT22;15175;48.154;11.534;2022-09-09T11:51:03;20.40;99.90
15967;DHT22;15175;48.154;11.534;2022-09-09T11:53:31;20.40;99.90
15967;DHT22;15175;48.154;11.534;2022-09-09T11:56:12;20.40;99.90
15967;DHT22;15175;48.154;11.534;2022-09-09T11:58:44;20.30;99.90
15967;DHT22;15175;48.154;11.534;2022-09-09T12:01:37;20.20;99.90
15967;DHT22;15175;48.154;11.534;2022-09-09T12:04:17;20.10;99.90
15967;DHT22;15175;48.154;11.534;2022-09-09T12:06:46;20.10;99.90
15967;DHT22;15175;48.154;11.534;2022-09-09T12:09:23;20.10;99.90
15967;DHT22;15175;48.154;11.534;2022-09-09T12:11:52;20.00;99.90
15967;DHT22;15175;48.154;11.534;2022-09-09T12:14:34;20.00;99.90
15967;DHT22;15175;48.154;11.534;2022-09-09T12:17:19;20.00;99.90
15967;DHT22;15175;48.154;11.534;2022-09-09T12:19:46;20.00;99.90
15967;DHT22;15175;48.154;11.534;2022-09-09T12:22:22;20.00;99.90
15967;DHT22;15175;48.154;11.534;2022-09-09T12:24:58;20.10;99.90
15967;DHT22;15175;48.154;11.534;2022-09-09T12:27:31;20.10;99.90
15967;DHT22;15175;48.154;11.534;2022-09-09T12:30:03;20.10;99.90
15967;DHT22;15175;48.154;11.534;2022-09-09T12:32:32;20.10;99.90
15967;DHT22;15175;48.154;11.534;2022-09-09T12:35:00;20.10;99.90
15967;DHT22;15175;48.154;11.534;2022-09-09T12:37:32;20.10;99.90
15967;DHT22;15175;48.154;11.534;2022-09-09T12:40:03;20.20;99.90
15967;DHT22;15175;48.154;11.534;2022-09-09T12:42:30;20.20;99.90
15967;DHT22;15175;48.154;11.534;2022-09-09T12:45:00;20.20;99.90
15967;DHT22;15175;48.154;11.534;2022-09-09T12:47:37;20.10;99.90
15967;DHT22;15175;48.154;11.534;2022-09-09T12:50:15;20.10;99.90
15967;DHT22;15175;48.154;11.534;2022-09-09T12:52:43;20.20;99.90
15967;DHT22;15175;48.154;11.534;2022-09-09T12:55:17;20.20;99.90
15967;DHT22;15175;48.154;11.534;2022-09-09T12:57:45;20.30;99.90
15967;DHT22;15175;48.154;11.534;2022-09-09T13:00:15;20.30;99.90
15967;DHT22;15175;48.154;11.534;2022-09-09T13:02:52;20.30;99.90
15967;DHT22;15175;48.154;11.534;2022-09-09T13:05:24;20.30;99.90
15967;DHT22;15175;48.154;11.534;2022-09-09T13:07:59;20.30;99.90
15967;DHT22;15175;48.154;11.534;2022-09-09T13:10:41;20.40;99.90
15967;DHT22;15175;48.154;11.534;2022-09-09T13:13:14;20.30;99.90
15967;DHT22;15175;48.154;11.534;2022-09-09T13:15:49;20.30;99.90
15967;DHT22;15175;48.154;11.534;2022-09-09T13:18:21;20.20;99.90
15967;DHT22;15175;48.154;11.534;2022-09-09T13:20:48;20.10;99.90
15967;DHT22;15175;48.154;11.534;2022-09-09T13:23:18;20.00;99.90
15967;DHT22;15175;48.154;11.534;2022-09-09T13:25:54;20.00;99.90
15967;DHT22;15175;48.154;11.534;2022-09-09T13:28:23;20.00;99.90
15967;DHT22;15175;48.154;11.534;2022-09-09T13:30:58;19.90;99.90
15967;DHT22;15175;48.154;11.534;2022-09-09T13:33:37;19.90;99.90
15967;DHT22;15175;48.154;11.534;2022-09-09T13:36:06;19.90;99.90
15967;DHT22;15175;48.154;11.534;2022-09-09T13:38:37;19.90;99.90
15967;DHT22;15175;48.154;11.534;2022-09-09T13:41:06;20.00;99.90
15967;DHT22;15175;48.154;11.534;2022-09-09T13:43:37;20.00;99.90
15967;DHT22;15175;48.154;11.534;2022-09-09T13:48:56;20.00;99.90
15967;DHT22;15175;48.154;11.534;2022-09-09T13:51:32;20.00;99.90
15967;DHT22;15175;48.154;11.534;2022-09-09T13:54:00;19.90;99.90
15967;DHT22;15175;48.154;11.534;2022-09-09T13:56:27;19.90;99.90
15967;DHT22;15175;48.154;11.534;2022-09-09T13:58:54;19.90;99.90
15967;DHT22;15175;48.154;11.534;2022-09-09T14:01:23;19.80;99.90
15967;DHT22;15175;48.154;11.534;2022-09-09T14:03:50;19.70;99.90
15967;DHT22;15175;48.154;11.534;2022-09-09T14:06:20;19.70;99.90
15967;DHT22;15175;48.154;11.534;2022-09-09T14:08:49;19.60;99.90
15967;DHT22;15175;48.154;11.534;2022-09-09T14:11:17;19.50;99.90
15967;DHT22;15175;48.154;11.534;2022-09-09T14:13:44;19.50;99.90
15967;DHT22;15175;48.154;11.534;2022-09-09T14:16:12;19.40;99.90
15967;DHT22;15175;48.154;11.534;2022-09-09T14:18:39;19.40;99.90
15967;DHT22;15175;48.154;11.534;2022-09-09T14:21:06;19.40;99.90
15967;DHT22;15175;48.154;11.534;2022-09-09T14:23:36;19.40;99.90
15967;DHT22;15175;48.154;11.534;2022-09-09T14:26:04;19.50;99.90
15967;DHT22;15175;48.154;11.534;2022-09-09T14:28:31;19.40;99.90
15967;DHT22;15175;48.154;11.534;2022-09-09T14:30:59;19.40;99.90
15967;DHT22;15175;48.154;11.534;2022-09-09T14:33:27;19.30;99.90
15967;DHT22;15175;48.154;11.534;2022-09-09T14:35:56;19.30;99.90
15967;DHT22;15175;48.154;11.534;2022-09-09T14:38:24;19.30;99.90
15967;DHT22;15175;48.154;11.534;2022-09-09T14:40:52;19.20;99.90
15967;DHT22;15175;48.154;11.534;2022-09-09T14:43:19;19.20;99.90
15967;DHT22;15175;48.154;11.534;2022-09-09T14:45:46;19.20;99.90
15967;DHT22;15175;48.154;11.534;2022-09-09T14:48:17;19.10;99.90
15967;DHT22;15175;48.154;11.534;2022-09-09T14:50:44;19.10;99.90
15967;DHT22;15175;48.154;11.534;2022-09-09T14:53:11;19.00;99.90
15967;DHT22;15175;48.154;11.534;2022-09-09T14:55:38;19.00;99.90
15967;DHT22;15175;48.154;11.534;2022-09-09T14:58:07;19.10;99.90
15967;DHT22;15175;48.154;11.534;2022-09-09T15:00:34;19.00;99.90
15967;DHT22;15175;48.154;11.534;2022-09-09T15:03:01;19.00;99.90
15967;DHT22;15175;48.154;11.534;2022-09-09T15:05:28;19.10;99.90
15967;DHT22;15175;48.154;11.534;2022-09-09T15:07:57;19.10;99.90
15967;DHT22;15175;48.154;11.534;2022-09-09T15:10:25;19.10;99.90
15967;DHT22;15175;48.154;11.534;2022-09-09T15:12:52;19.10;99.90
15967;DHT22;15175;48.154;11.534;2022-09-09T15:15:21;19.10;99.90
15967;DHT22;15175;48.154;11.534;2022-09-09T15:17:48;19.10;99.90
15967;DHT22;15175;48.154;11.534;2022-09-09T15:20:15;19.00;99.90
15967;DHT22;15175;48.154;11.534;2022-09-09T15:22:42;19.00;99.90
15967;DHT22;15175;48.154;11.534;2022-09-09T15:25:09;18.90;99.90
15967;DHT22;15175;48.154;11.534;2022-09-09T15:27:38;18.90;99.90
15967;DHT22;15175;48.154;11.534;2022-09-09T15:30:07;18.90;99.90
15967;DHT22;15175;48.154;11.534;2022-09-09T15:32:36;18.90;99.90
15967;DHT22;15175;48.154;11.534;2022-09-09T15:35:04;18.90;99.90
15967;DHT22;15175;48.154;11.534;2022-09-09T15:37:32;18.90;99.90
15967;DHT22;15175;48.154;11.534;2022-09-09T15:39:59;18.90;99.90
15967;DHT22;15175;48.154;11.534;2022-09-09T15:42:26;18.90;99.90
15967;DHT22;15175;48.154;11.534;2022-09-09T15:44:54;19.00;99.90
15967;DHT22;15175;48.154;11.534;2022-09-09T15:47:22;19.00;99.90
15967;DHT22;15175;48.154;11.534;2022-09-09T15:49:51;19.00;99.90
15967;DHT22;15175;48.154;11.534;2022-09-09T15:52:18;19.10;99.90